Kanazawa, Japan

6:40 AM JST on November 27, 2014 (GMT +0900)
JR9MAR-WX | Change Station
CLOSE
Current Station
Personal Weather Station
Location: TONAMI, TOYAMA
Elevation: 325 ft
Nearby Weather Stations

Elev 325 ft 36.57 °N, 136.98 °E | Updated 3 seconds ago

Scattered Clouds
Scattered Clouds
47.7 °F
Feels Like 48 °F
N
1.0
Wind Variable Wind from SSW
Gusts 3.8 mph

Today
High -- | Low -- °F
--% Chance of Precip.
Yesterday
High -- | Low -- °F
Precip. -- in
6:42 AM 4:39 PM
Waxing Crescent, 23% visible
Pressure 30.12 in
Visibility 6.2 miles
Clouds Few 2000 ft
Scattered Clouds 5000 ft
Windchill 48 °F
Dew Point 46 °F
Humidity 95%
Rainfall 0.00 in
Snow Depth Not available.
UV 0 out of 12
Pollen Not available.
Air Quality Not available.
Flu Activity Not available.
SPECI RJNT 262110Z 17005KT 9999 FEW020 SCT050 09/08 Q1020 RMK 1CU020 3CU050 A3014

More Conditions Fewer Conditions

Pressure 30.12 in
Visibility 6.2 miles
Clouds Few 2000 ft
Scattered Clouds 5000 ft
Windchill 48 °F
Dew Point 46 °F
Humidity 95%
Rainfall 0.00 in
Snow Depth Not available.
UV 0 out of 12
Pollen Not available.
Air Quality Not available.
Flu Activity Not available.
SPECI RJNT 262110Z 17005KT 9999 FEW020 SCT050 09/08 Q1020 RMK 1CU020 3CU050 A3014

More Conditions Fewer Conditions

10-Day Weather Forecast

Almanac

Astronomy

Nov. 27, 2014 Rise Set
Actual Time
Civil Twilight
Nautical Twilight
Astronomical Twilight
Moon
Length of Visible Light
Length of Day
Tomorrow will be .
, % of the Moon is Illuminated

Today's Extremes

Country Highs Country Lows

Community

WunderPhotos

Upload Photos

1,773,876 photos uploaded!

WunderBlogs® & News

Nearby

Air Quality

  Air Quality AQ Index Pollutant
Not available.

Snow Depth

Station Depth Elevation

Earthquake Activity

City Distance Mag. Time & Date
Minimum magnitude displayed is 2.5.

Coastal Water Temperatures

Place Temperature

Nearby Weather Stations